createdAt,value
2017-03-29T00:00:31.928Z,0
2017-03-29T00:02:10.409Z,0
2017-03-29T00:02:51.340Z,0
2017-03-29T00:03:32.278Z,0
2017-03-29T00:04:13.176Z,0
2017-03-29T00:04:54.109Z,0
2017-03-29T00:05:35.083Z,0
2017-03-29T00:06:16.006Z,0
2017-03-29T00:06:56.926Z,0
2017-03-29T00:07:37.825Z,0
2017-03-29T00:08:18.806Z,0
2017-03-29T00:10:28.829Z,0
2017-03-29T00:12:27.860Z,0
2017-03-29T00:14:06.491Z,0
2017-03-29T00:14:47.684Z,0
2017-03-29T00:15:28.722Z,0
2017-03-29T00:17:22.504Z,0
2017-03-29T00:18:03.508Z,0
2017-03-29T00:19:58.081Z,0
2017-03-29T00:20:38.972Z,0
2017-03-29T00:21:19.845Z,0
2017-03-29T00:22:00.722Z,0
2017-03-29T00:22:41.613Z,0
2017-03-29T00:23:22.531Z,0
2017-03-29T00:24:03.413Z,0
2017-03-29T00:24:44.306Z,0
2017-03-29T00:25:25.190Z,0
2017-03-29T00:26:06.079Z,0
2017-03-29T00:26:46.963Z,0
2017-03-29T00:27:27.854Z,0
2017-03-29T00:28:08.744Z,0
2017-03-29T00:28:49.627Z,0
2017-03-29T00:29:30.515Z,0
2017-03-29T00:30:11.424Z,0
2017-03-29T00:30:52.282Z,0
2017-03-29T00:31:33.167Z,0
2017-03-29T00:32:14.062Z,0
2017-03-29T00:32:54.938Z,0
2017-03-29T00:33:35.823Z,0
2017-03-29T00:34:16.711Z,0
2017-03-29T00:34:57.617Z,0
2017-03-29T00:35:38.509Z,0
2017-03-29T00:36:19.398Z,0
2017-03-29T00:37:00.282Z,0
2017-03-29T00:37:41.172Z,0
2017-03-29T00:38:22.062Z,0
2017-03-29T00:39:02.944Z,0
2017-03-29T00:39:43.827Z,0
2017-03-29T00:40:24.713Z,0
2017-03-29T00:41:05.609Z,0
2017-03-29T00:41:46.490Z,0
2017-03-29T00:42:27.378Z,0
2017-03-29T00:43:08.269Z,0
2017-03-29T00:43:49.155Z,0
2017-03-29T00:44:30.053Z,0
2017-03-29T00:45:10.941Z,0
2017-03-29T00:45:51.820Z,0
2017-03-29T00:46:32.704Z,0
2017-03-29T00:47:13.589Z,0
2017-03-29T00:47:54.475Z,0
2017-03-29T00:48:35.358Z,0
2017-03-29T00:49:16.244Z,0
2017-03-29T00:49:57.129Z,0
2017-03-29T00:50:38.010Z,0
2017-03-29T00:51:18.898Z,0
2017-03-29T00:51:59.782Z,0
2017-03-29T00:52:40.689Z,0
2017-03-29T00:53:21.564Z,0
2017-03-29T00:54:02.446Z,0
2017-03-29T00:54:43.332Z,0
2017-03-29T00:55:24.233Z,0
2017-03-29T00:56:05.113Z,0
2017-03-29T00:56:46.000Z,0
2017-03-29T00:57:26.886Z,0
2017-03-29T00:58:07.776Z,0
2017-03-29T00:58:48.662Z,0
2017-03-29T00:59:29.541Z,0
2017-03-29T01:00:10.441Z,0
2017-03-29T01:00:51.325Z,0
2017-03-29T01:01:32.206Z,0
2017-03-29T01:02:13.094Z,0
2017-03-29T01:02:53.982Z,0
2017-03-29T01:03:34.862Z,0
2017-03-29T01:04:15.749Z,0
2017-03-29T01:04:56.633Z,0
2017-03-29T01:05:37.530Z,0
2017-03-29T01:06:18.420Z,0
2017-03-29T01:06:59.320Z,0
2017-03-29T01:07:40.204Z,0
2017-03-29T01:08:21.124Z,0
2017-03-29T01:09:02.012Z,0
2017-03-29T01:09:42.899Z,0
2017-03-29T01:10:23.789Z,0
2017-03-29T01:11:04.674Z,0
2017-03-29T01:11:45.561Z,0
2017-03-29T01:12:26.438Z,0
2017-03-29T01:13:07.319Z,0
2017-03-29T01:13:48.206Z,0
2017-03-29T01:14:29.097Z,0
2017-03-29T01:15:09.978Z,0
2017-03-29T01:15:50.863Z,0
2017-03-29T01:16:31.749Z,0
2017-03-29T01:17:12.636Z,0
2017-03-29T01:17:53.527Z,0
2017-03-29T01:18:34.408Z,0
2017-03-29T01:19:15.296Z,0
2017-03-29T01:19:56.179Z,0
2017-03-29T01:20:37.063Z,0
2017-03-29T01:21:17.950Z,0
2017-03-29T01:21:58.839Z,0
2017-03-29T01:22:39.721Z,0
2017-03-29T01:23:20.602Z,0
2017-03-29T01:24:01.492Z,0
2017-03-29T01:24:42.376Z,0
2017-03-29T01:25:23.255Z,0
2017-03-29T01:26:04.163Z,0
2017-03-29T01:26:45.040Z,0
2017-03-29T01:27:25.923Z,0
2017-03-29T01:28:06.803Z,0
2017-03-29T01:28:47.693Z,0
2017-03-29T01:29:28.577Z,0
2017-03-29T01:30:09.466Z,0
2017-03-29T01:30:50.351Z,0
2017-03-29T01:31:31.238Z,0
2017-03-29T01:32:12.119Z,0
2017-03-29T01:32:53.001Z,0
2017-03-29T01:33:33.903Z,0
2017-03-29T01:34:14.784Z,0
2017-03-29T01:34:55.665Z,0
2017-03-29T01:35:36.546Z,0
2017-03-29T01:36:17.423Z,0
2017-03-29T01:36:58.314Z,0
2017-03-29T01:37:39.201Z,0
2017-03-29T01:38:20.090Z,0
2017-03-29T01:39:01.026Z,0
2017-03-29T01:39:41.870Z,0
2017-03-29T01:40:22.757Z,0
2017-03-29T01:41:03.651Z,0
2017-03-29T01:41:44.534Z,0
2017-03-29T01:42:25.423Z,0
2017-03-29T01:43:06.310Z,0
2017-03-29T01:43:47.196Z,0
2017-03-29T01:44:28.080Z,0
2017-03-29T01:45:08.968Z,0
2017-03-29T01:45:49.859Z,0
2017-03-29T01:46:30.740Z,0
2017-03-29T01:47:11.619Z,0
2017-03-29T01:47:52.507Z,0
2017-03-29T01:48:33.392Z,0
2017-03-29T01:49:14.278Z,0
2017-03-29T01:49:55.160Z,0
2017-03-29T01:50:36.041Z,0
2017-03-29T01:51:16.940Z,0
2017-03-29T01:51:57.812Z,0
2017-03-29T01:52:38.692Z,0
2017-03-29T01:53:19.583Z,0
2017-03-29T01:54:00.488Z,0
2017-03-29T01:54:41.364Z,0
2017-03-29T01:55:22.250Z,0
2017-03-29T01:56:03.146Z,0
2017-03-29T01:56:44.023Z,0
2017-03-29T01:57:24.904Z,0
2017-03-29T01:58:05.792Z,0
2017-03-29T01:58:46.682Z,0
2017-03-29T01:59:27.567Z,0
2017-03-29T02:00:08.457Z,0
2017-03-29T02:00:49.346Z,0
2017-03-29T02:01:30.233Z,0
2017-03-29T02:02:11.119Z,0
2017-03-29T02:02:52.002Z,0
2017-03-29T02:03:32.887Z,0
2017-03-29T02:04:13.778Z,0
2017-03-29T02:04:54.666Z,0
2017-03-29T02:05:35.564Z,0
2017-03-29T02:06:16.445Z,0
2017-03-29T02:06:57.329Z,0
2017-03-29T02:07:38.221Z,0
2017-03-29T02:08:19.106Z,0
2017-03-29T02:08:59.988Z,0
2017-03-29T02:09:40.877Z,0
2017-03-29T02:10:21.764Z,0
2017-03-29T02:11:03.105Z,0
2017-03-29T02:11:43.990Z,0
2017-03-29T02:12:24.872Z,0
2017-03-29T02:13:05.763Z,0
2017-03-29T02:13:46.654Z,0
2017-03-29T02:14:27.551Z,0
2017-03-29T02:15:08.414Z,0
2017-03-29T02:15:49.304Z,0
2017-03-29T02:16:30.195Z,0
2017-03-29T02:17:11.073Z,0
2017-03-29T02:17:51.948Z,0
2017-03-29T02:18:32.825Z,0
2017-03-29T02:19:13.710Z,0
2017-03-29T02:19:54.599Z,0
2017-03-29T02:20:35.473Z,0
2017-03-29T02:21:16.356Z,0
2017-03-29T02:21:57.250Z,0
2017-03-29T02:22:38.135Z,0
2017-03-29T02:23:19.021Z,0
2017-03-29T02:23:59.897Z,0
2017-03-29T02:24:40.820Z,0
2017-03-29T02:25:21.653Z,0
2017-03-29T02:26:02.537Z,0
2017-03-29T02:26:43.420Z,0
2017-03-29T02:27:24.297Z,0
2017-03-29T02:28:05.191Z,0
2017-03-29T02:28:46.072Z,0
2017-03-29T02:29:26.953Z,0
2017-03-29T02:30:07.839Z,0
2017-03-29T02:30:48.733Z,0
2017-03-29T02:31:29.632Z,0
2017-03-29T02:32:10.522Z,0
2017-03-29T02:32:52.107Z,0
2017-03-29T02:33:33.011Z,0
2017-03-29T02:34:13.890Z,0
2017-03-29T02:34:54.783Z,0
2017-03-29T02:35:35.662Z,0
2017-03-29T02:36:16.546Z,0
2017-03-29T02:36:57.426Z,0
2017-03-29T02:37:38.317Z,0
2017-03-29T02:38:19.213Z,0
2017-03-29T02:39:00.093Z,0
2017-03-29T02:39:40.977Z,0
2017-03-29T02:40:21.874Z,0
2017-03-29T02:41:02.747Z,0
2017-03-29T02:41:43.629Z,0
2017-03-29T02:42:24.534Z,0
2017-03-29T02:43:05.410Z,0
2017-03-29T02:43:46.296Z,0
2017-03-29T02:44:27.176Z,0
2017-03-29T02:45:08.059Z,0
2017-03-29T02:45:48.948Z,0
2017-03-29T02:46:29.817Z,0
2017-03-29T02:47:10.705Z,0
2017-03-29T02:47:51.595Z,0
2017-03-29T02:48:32.479Z,0
2017-03-29T02:49:13.361Z,0
2017-03-29T02:49:54.247Z,0
2017-03-29T02:50:35.139Z,0
2017-03-29T02:51:16.020Z,0
2017-03-29T02:51:56.905Z,0
2017-03-29T02:52:37.790Z,0
2017-03-29T02:53:18.677Z,0
2017-03-29T02:53:59.560Z,0
2017-03-29T02:54:40.444Z,0
2017-03-29T02:55:21.331Z,0
2017-03-29T02:56:02.216Z,0
2017-03-29T02:56:43.104Z,0
2017-03-29T02:57:23.990Z,0
2017-03-29T02:58:05.611Z,0
2017-03-29T02:58:46.492Z,0
2017-03-29T02:59:27.379Z,0
2017-03-29T03:00:08.266Z,0
2017-03-29T03:00:49.149Z,0
2017-03-29T03:01:30.028Z,0
2017-03-29T03:02:10.921Z,0
2017-03-29T03:02:51.807Z,0
2017-03-29T03:03:32.702Z,0
2017-03-29T03:04:13.590Z,0
2017-03-29T03:04:54.476Z,0
2017-03-29T03:05:35.358Z,0
2017-03-29T03:06:16.237Z,0
2017-03-29T03:06:57.123Z,0
2017-03-29T03:07:38.014Z,0
2017-03-29T03:08:18.913Z,0
2017-03-29T03:08:59.800Z,0
2017-03-29T03:09:40.685Z,0
2017-03-29T03:10:21.561Z,0
2017-03-29T03:11:02.436Z,0
2017-03-29T03:11:43.308Z,0
2017-03-29T03:12:24.198Z,0
2017-03-29T03:13:05.082Z,0
2017-03-29T03:13:45.960Z,0
2017-03-29T03:14:26.846Z,0
2017-03-29T03:15:07.726Z,0
2017-03-29T03:15:48.614Z,0
2017-03-29T03:16:29.549Z,0
2017-03-29T03:17:10.435Z,0
2017-03-29T03:17:51.323Z,0
2017-03-29T03:18:32.212Z,0
2017-03-29T03:19:13.108Z,0
2017-03-29T03:19:53.984Z,0
2017-03-29T03:20:34.861Z,0
2017-03-29T03:21:15.751Z,0
2017-03-29T03:21:56.648Z,0
2017-03-29T03:22:37.508Z,0
2017-03-29T03:23:18.412Z,0
2017-03-29T03:23:59.256Z,0
2017-03-29T03:24:40.142Z,0
2017-03-29T03:25:21.043Z,0
2017-03-29T03:26:01.916Z,0
2017-03-29T03:26:42.797Z,0
2017-03-29T03:27:23.676Z,0
2017-03-29T03:28:04.571Z,0
2017-03-29T03:28:45.442Z,0
2017-03-29T03:29:26.322Z,0
2017-03-29T03:30:07.204Z,0
2017-03-29T03:30:48.092Z,0
2017-03-29T03:31:28.975Z,0
2017-03-29T03:32:09.858Z,0
2017-03-29T03:32:50.742Z,0
2017-03-29T03:33:31.640Z,0
2017-03-29T03:34:12.522Z,0
2017-03-29T03:34:53.406Z,0
2017-03-29T03:35:34.301Z,0
2017-03-29T03:36:15.182Z,0
2017-03-29T03:36:56.078Z,0
2017-03-29T03:37:36.969Z,0
2017-03-29T03:38:17.858Z,0
2017-03-29T03:38:58.726Z,0
2017-03-29T03:39:39.601Z,0
2017-03-29T03:40:20.501Z,0
2017-03-29T03:41:01.384Z,0
2017-03-29T03:41:42.265Z,0
2017-03-29T03:42:23.146Z,0
2017-03-29T03:43:04.039Z,0
2017-03-29T03:43:44.921Z,0
2017-03-29T03:44:25.804Z,0
2017-03-29T03:45:06.696Z,0
2017-03-29T03:45:47.578Z,0
2017-03-29T03:46:28.478Z,0
2017-03-29T03:47:09.371Z,0
2017-03-29T03:47:50.257Z,0
2017-03-29T03:48:31.136Z,0
2017-03-29T03:49:12.027Z,0
2017-03-29T03:49:52.909Z,0
2017-03-29T03:50:33.792Z,0
2017-03-29T03:51:14.669Z,0
2017-03-29T03:51:55.550Z,0
2017-03-29T03:52:36.433Z,0
2017-03-29T03:53:17.321Z,0
2017-03-29T03:53:58.201Z,0
2017-03-29T03:54:39.084Z,0
2017-03-29T03:55:19.964Z,0
2017-03-29T03:56:00.856Z,0
2017-03-29T03:56:41.739Z,0
2017-03-29T03:57:22.617Z,0
2017-03-29T03:58:03.503Z,0
2017-03-29T03:58:44.391Z,0
2017-03-29T03:59:25.273Z,0
2017-03-29T04:00:06.151Z,0
2017-03-29T04:00:47.042Z,0
2017-03-29T04:01:27.928Z,0
2017-03-29T04:02:08.807Z,0
2017-03-29T04:02:49.703Z,0
2017-03-29T04:03:30.593Z,0
2017-03-29T04:04:11.477Z,0
2017-03-29T04:04:52.361Z,0
2017-03-29T04:05:33.248Z,0
2017-03-29T04:06:14.134Z,0
2017-03-29T04:06:55.016Z,0
2017-03-29T04:07:35.897Z,0
2017-03-29T04:08:16.780Z,0
2017-03-29T04:08:57.666Z,0
2017-03-29T04:09:38.543Z,0
2017-03-29T04:10:19.424Z,0
2017-03-29T04:11:00.311Z,0
2017-03-29T04:11:41.206Z,0
2017-03-29T04:12:22.086Z,0
2017-03-29T04:13:02.967Z,0
2017-03-29T04:13:43.852Z,0
2017-03-29T04:14:24.739Z,4
2017-03-29T04:15:05.615Z,0
2017-03-29T04:15:46.492Z,4
2017-03-29T04:16:27.376Z,4
2017-03-29T04:17:08.262Z,4
2017-03-29T04:17:49.140Z,4
2017-03-29T04:18:30.018Z,0
2017-03-29T04:19:10.908Z,0
2017-03-29T04:19:51.792Z,4
2017-03-29T04:20:32.673Z,4
2017-03-29T04:21:13.557Z,0
2017-03-29T04:21:54.444Z,4
2017-03-29T04:22:35.334Z,4
2017-03-29T04:23:16.217Z,4
2017-03-29T04:23:57.096Z,4
2017-03-29T04:24:37.980Z,4
2017-03-29T04:25:18.873Z,4
2017-03-29T04:25:59.759Z,4
2017-03-29T04:26:40.640Z,4
2017-03-29T04:27:21.543Z,4
2017-03-29T04:28:02.422Z,4
2017-03-29T04:28:43.304Z,4
2017-03-29T04:29:24.198Z,8
2017-03-29T04:30:05.086Z,8
2017-03-29T04:30:45.971Z,8
2017-03-29T04:31:26.862Z,8
2017-03-29T04:32:07.763Z,8
2017-03-29T04:32:48.644Z,12
2017-03-29T04:33:29.530Z,12
2017-03-29T04:34:10.424Z,12
2017-03-29T04:34:51.303Z,16
2017-03-29T04:35:32.182Z,16
2017-03-29T04:36:13.072Z,20
2017-03-29T04:36:53.967Z,20
2017-03-29T04:37:34.845Z,24
2017-03-29T04:38:15.729Z,24
2017-03-29T04:38:56.609Z,32
2017-03-29T04:39:37.499Z,36
2017-03-29T04:40:18.375Z,36
2017-03-29T04:40:59.262Z,40
2017-03-29T04:41:40.147Z,48
2017-03-29T04:42:21.033Z,52
2017-03-29T04:43:01.915Z,60
2017-03-29T04:43:42.827Z,72
2017-03-29T04:44:23.685Z,80
2017-03-29T04:45:04.570Z,92
2017-03-29T04:45:45.441Z,100
2017-03-29T04:46:26.319Z,112
2017-03-29T04:47:07.204Z,120
2017-03-29T04:47:48.087Z,128
2017-03-29T04:48:29.060Z,140
2017-03-29T04:50:27.896Z,172
2017-03-29T04:51:08.839Z,184
2017-03-29T04:51:49.824Z,200
2017-03-29T04:52:30.779Z,212
2017-03-29T04:53:11.713Z,224
2017-03-29T04:53:52.588Z,240
2017-03-29T04:54:33.471Z,252
2017-03-29T04:55:14.347Z,264
2017-03-29T04:55:55.227Z,276
2017-03-29T04:56:36.115Z,288
2017-03-29T04:57:16.991Z,300
2017-03-29T04:57:57.875Z,312
2017-03-29T04:58:38.757Z,328
2017-03-29T05:00:47.722Z,376
2017-03-29T05:01:28.603Z,396
2017-03-29T05:02:09.482Z,416
2017-03-29T05:02:50.362Z,440
2017-03-29T05:03:31.267Z,464
2017-03-29T05:04:12.154Z,488
2017-03-29T05:04:53.037Z,516
2017-03-29T05:05:33.920Z,536
2017-03-29T05:06:14.803Z,552
2017-03-29T05:06:55.689Z,560
2017-03-29T05:07:36.571Z,568
2017-03-29T05:08:17.441Z,584
2017-03-29T05:08:58.331Z,600
2017-03-29T05:09:39.221Z,612
2017-03-29T05:10:20.103Z,624
2017-03-29T05:11:00.983Z,628
2017-03-29T05:11:41.869Z,636
2017-03-29T05:12:22.766Z,652
2017-03-29T05:13:03.657Z,672
2017-03-29T05:13:44.549Z,708
2017-03-29T05:14:25.495Z,780
2017-03-29T05:16:04.910Z,848
2017-03-29T05:16:45.774Z,784
2017-03-29T05:17:26.665Z,696
2017-03-29T05:18:07.554Z,564
2017-03-29T05:18:48.440Z,464
2017-03-29T05:19:29.334Z,444
2017-03-29T05:20:10.213Z,468
2017-03-29T05:20:51.098Z,504
2017-03-29T05:21:31.996Z,540
2017-03-29T05:22:12.884Z,584
2017-03-29T05:22:53.773Z,624
2017-03-29T05:23:34.653Z,624
2017-03-29T05:24:15.537Z,592
2017-03-29T05:24:56.424Z,588
2017-03-29T05:25:37.308Z,612
2017-03-29T05:26:18.187Z,652
2017-03-29T05:26:59.077Z,716
2017-03-29T05:27:39.963Z,768
2017-03-29T05:28:20.843Z,804
2017-03-29T05:29:01.739Z,828
2017-03-29T05:29:42.680Z,836
2017-03-29T05:30:23.567Z,816
2017-03-29T05:31:04.451Z,768
2017-03-29T05:31:45.347Z,732
2017-03-29T05:32:26.217Z,708
2017-03-29T05:33:07.094Z,672
2017-03-29T05:33:47.982Z,636
2017-03-29T05:34:28.865Z,592
2017-03-29T05:35:09.746Z,572
2017-03-29T05:35:50.636Z,596
2017-03-29T05:36:31.510Z,660
2017-03-29T05:37:12.383Z,708
2017-03-29T05:37:53.264Z,672
2017-03-29T05:38:34.145Z,592
2017-03-29T05:39:15.039Z,528
2017-03-29T05:39:55.909Z,504
2017-03-29T05:40:36.786Z,500
2017-03-29T05:41:17.665Z,504
2017-03-29T05:41:58.557Z,480
2017-03-29T05:42:39.452Z,452
2017-03-29T05:43:20.329Z,436
2017-03-29T05:44:01.207Z,460
2017-03-29T05:44:42.092Z,504
2017-03-29T05:45:22.986Z,540
2017-03-29T05:46:03.857Z,564
2017-03-29T05:46:44.733Z,640
2017-03-29T05:47:25.616Z,688
2017-03-29T05:48:06.504Z,744
2017-03-29T05:48:47.384Z,792
2017-03-29T05:49:28.265Z,820
2017-03-29T05:50:09.154Z,868
2017-03-29T05:50:50.044Z,1012
2017-03-29T05:51:30.951Z,1216
2017-03-29T05:52:11.807Z,1396
2017-03-29T05:52:52.686Z,1568
2017-03-29T05:53:33.577Z,1704
2017-03-29T05:54:14.459Z,1848
2017-03-29T05:54:55.340Z,1932
2017-03-29T05:55:36.225Z,1980
2017-03-29T05:56:17.108Z,1964
2017-03-29T05:56:57.996Z,1840
2017-03-29T05:57:38.869Z,960
2017-03-29T05:58:19.756Z,1424
2017-03-29T05:59:00.656Z,1276
2017-03-29T05:59:41.527Z,1200
2017-03-29T06:00:22.398Z,1180
2017-03-29T06:01:03.264Z,1208
2017-03-29T06:01:44.176Z,1336
2017-03-29T06:02:25.054Z,1596
2017-03-29T06:03:05.956Z,1724
2017-03-29T06:03:46.822Z,1828
2017-03-29T06:04:27.714Z,1964
2017-03-29T06:05:08.587Z,1980
2017-03-29T06:05:49.471Z,1996
2017-03-29T06:06:30.360Z,2268
2017-03-29T06:07:11.242Z,2596
2017-03-29T06:07:52.123Z,2932
2017-03-29T06:08:33.006Z,3168
2017-03-29T06:09:13.889Z,3320
2017-03-29T06:09:54.776Z,3496
2017-03-29T06:10:35.655Z,3800
2017-03-29T06:11:16.536Z,4284
2017-03-29T06:11:57.417Z,4644
2017-03-29T06:12:38.304Z,4740
2017-03-29T06:13:19.190Z,4744
2017-03-29T06:14:00.077Z,4908
2017-03-29T06:14:40.971Z,4528
2017-03-29T06:15:21.856Z,4552
2017-03-29T06:16:02.738Z,3948
2017-03-29T06:16:43.605Z,3120
2017-03-29T06:17:24.507Z,3136
2017-03-29T06:18:05.375Z,3364
2017-03-29T06:18:46.258Z,1048
2017-03-29T06:19:27.139Z,4112
2017-03-29T06:20:08.015Z,4012
2017-03-29T06:20:48.904Z,1552
2017-03-29T06:21:29.789Z,3464
2017-03-29T06:22:10.697Z,3464
2017-03-29T06:22:51.557Z,3592
2017-03-29T06:23:32.439Z,3804
2017-03-29T06:24:13.323Z,3916
2017-03-29T06:24:54.202Z,4324
2017-03-29T06:25:35.093Z,4332
2017-03-29T06:26:15.982Z,5404
2017-03-29T06:26:56.866Z,3720
2017-03-29T06:27:37.745Z,3772
2017-03-29T06:28:18.623Z,3848
2017-03-29T06:28:59.512Z,3360
2017-03-29T06:29:40.389Z,2900
2017-03-29T06:30:21.272Z,3204
2017-03-29T06:31:02.160Z,2912
2017-03-29T06:31:43.055Z,2496
2017-03-29T06:32:23.929Z,1696
2017-03-29T06:33:04.805Z,1348
2017-03-29T06:33:45.692Z,2040
2017-03-29T06:34:26.581Z,760
2017-03-29T06:35:07.460Z,2336
2017-03-29T06:35:48.339Z,2428
2017-03-29T06:36:29.224Z,1912
2017-03-29T06:37:10.114Z,2844
2017-03-29T06:37:50.989Z,3060
2017-03-29T06:38:31.905Z,3580
2017-03-29T06:39:12.807Z,2216
2017-03-29T06:39:53.688Z,3828
2017-03-29T06:40:34.567Z,3916
2017-03-29T06:41:15.455Z,4004
2017-03-29T06:41:56.339Z,4204
2017-03-29T06:42:37.218Z,4452
2017-03-29T06:43:18.104Z,262140
2017-03-29T06:43:58.991Z,262140
2017-03-29T06:44:39.902Z,262140
2017-03-29T06:45:20.782Z,262140
2017-03-29T06:46:01.664Z,262140
2017-03-29T06:46:42.552Z,262140
2017-03-29T06:47:23.440Z,262140
2017-03-29T06:48:04.309Z,262140
2017-03-29T06:48:45.194Z,262140
2017-03-29T06:49:26.081Z,262140
2017-03-29T06:50:06.961Z,262140
2017-03-29T06:50:47.844Z,262140
2017-03-29T06:51:28.727Z,262140
2017-03-29T06:52:09.606Z,262140
2017-03-29T06:52:50.489Z,262140
2017-03-29T06:53:31.364Z,262140
2017-03-29T06:54:12.251Z,262140
2017-03-29T06:54:53.126Z,262140
2017-03-29T06:55:34.006Z,262140
2017-03-29T06:56:14.879Z,262140
2017-03-29T06:56:55.753Z,262140
2017-03-29T06:57:36.634Z,262140
2017-03-29T06:58:17.512Z,262140
2017-03-29T06:58:58.444Z,262140
2017-03-29T06:59:39.352Z,262140
2017-03-29T07:00:20.199Z,262140
2017-03-29T07:01:01.073Z,262140
2017-03-29T07:01:41.950Z,262140
2017-03-29T07:02:22.823Z,262140
2017-03-29T07:03:03.708Z,262140
2017-03-29T07:03:44.593Z,262140
2017-03-29T07:04:25.514Z,262140
2017-03-29T07:05:06.371Z,262140
2017-03-29T07:05:47.225Z,262140
2017-03-29T07:06:28.105Z,262140
2017-03-29T07:07:08.985Z,262140
2017-03-29T07:07:49.875Z,262140
2017-03-29T07:08:30.764Z,262140
2017-03-29T07:09:11.657Z,262140
2017-03-29T07:09:52.566Z,262140
2017-03-29T07:10:33.450Z,262140
2017-03-29T07:11:14.337Z,262140
2017-03-29T07:11:55.217Z,262140
2017-03-29T07:12:36.094Z,262140
2017-03-29T07:13:16.977Z,262140
2017-03-29T07:13:57.856Z,262140
2017-03-29T07:14:38.737Z,262140
2017-03-29T07:15:19.616Z,262140
2017-03-29T07:16:00.502Z,262140
2017-03-29T07:16:41.382Z,262140
2017-03-29T07:17:22.264Z,262140
2017-03-29T07:18:03.151Z,262140
2017-03-29T07:18:44.029Z,262140
2017-03-29T07:19:25.104Z,262140
2017-03-29T07:20:05.959Z,262140
2017-03-29T07:20:46.833Z,262140
2017-03-29T07:21:27.715Z,262140
2017-03-29T07:22:08.598Z,262140
2017-03-29T07:22:49.482Z,262140
2017-03-29T07:23:30.371Z,262140
2017-03-29T07:24:11.252Z,262140
2017-03-29T07:24:52.141Z,262140
2017-03-29T07:25:33.029Z,262140
2017-03-29T07:26:13.909Z,262140
2017-03-29T07:26:54.792Z,262140
2017-03-29T07:27:35.668Z,262140
2017-03-29T07:28:16.553Z,262140
2017-03-29T07:28:57.435Z,262140
2017-03-29T07:29:38.332Z,262140
2017-03-29T07:30:19.187Z,262140
2017-03-29T07:31:00.063Z,262140
2017-03-29T07:31:40.944Z,262140
2017-03-29T07:32:21.859Z,262140
2017-03-29T07:33:02.701Z,262140
2017-03-29T07:33:43.611Z,262140
2017-03-29T07:34:24.491Z,262140
2017-03-29T07:35:05.366Z,262140
2017-03-29T07:35:46.242Z,262140
2017-03-29T07:36:27.120Z,262140
2017-03-29T07:37:08.009Z,262140
2017-03-29T07:37:48.887Z,262140
2017-03-29T07:38:29.770Z,262140
2017-03-29T07:39:10.652Z,262140
2017-03-29T07:39:51.555Z,262140
2017-03-29T07:40:32.469Z,262140
2017-03-29T07:41:13.406Z,262140
2017-03-29T07:41:54.287Z,262140
2017-03-29T07:42:35.167Z,262140
2017-03-29T07:43:16.052Z,262140
2017-03-29T07:43:56.938Z,262140
2017-03-29T07:44:37.818Z,262140
2017-03-29T07:45:18.703Z,262140
2017-03-29T07:45:59.584Z,262140
2017-03-29T07:46:40.473Z,262140
2017-03-29T07:47:21.352Z,262140
2017-03-29T07:48:02.232Z,262140
2017-03-29T07:48:43.116Z,262140
2017-03-29T07:49:23.990Z,262140
2017-03-29T07:50:04.867Z,262140
2017-03-29T07:50:45.740Z,262140
2017-03-29T07:51:26.613Z,262140
2017-03-29T07:52:07.532Z,262140
2017-03-29T07:52:48.409Z,262140
2017-03-29T07:53:29.283Z,262140
2017-03-29T07:54:10.154Z,262140
2017-03-29T07:54:51.034Z,262140
2017-03-29T07:55:31.916Z,262140
2017-03-29T07:56:12.784Z,262140
2017-03-29T07:56:53.654Z,262140
2017-03-29T07:57:34.537Z,262140
2017-03-29T07:58:15.420Z,262140
2017-03-29T07:58:56.331Z,262140
2017-03-29T07:59:37.191Z,262140
2017-03-29T08:00:18.055Z,262140
2017-03-29T08:00:58.930Z,262140
2017-03-29T08:01:39.808Z,262140
2017-03-29T08:02:20.697Z,262140
2017-03-29T08:03:01.573Z,262140
2017-03-29T08:03:42.454Z,262140
2017-03-29T08:04:23.330Z,262140
2017-03-29T08:05:04.217Z,262140
2017-03-29T08:05:45.102Z,262140
2017-03-29T08:06:25.965Z,262140
2017-03-29T08:07:06.834Z,262140
2017-03-29T08:07:47.703Z,262140
2017-03-29T08:08:28.587Z,262140
2017-03-29T08:09:09.475Z,262140
2017-03-29T08:09:50.356Z,262140
2017-03-29T08:10:31.241Z,262140
2017-03-29T08:11:12.128Z,262140
2017-03-29T08:11:53.009Z,262140
2017-03-29T08:12:33.897Z,262140
2017-03-29T08:13:14.796Z,262140
2017-03-29T08:13:55.685Z,262140
2017-03-29T08:14:36.567Z,262140
2017-03-29T08:15:17.452Z,262140
2017-03-29T08:15:58.344Z,262140
2017-03-29T08:16:39.231Z,262140
2017-03-29T08:17:20.110Z,262140
2017-03-29T08:18:01.020Z,262140
2017-03-29T08:18:41.877Z,262140
2017-03-29T08:19:22.770Z,262140
2017-03-29T08:20:03.651Z,262140
2017-03-29T08:20:44.558Z,262140
2017-03-29T08:21:25.443Z,262140
2017-03-29T08:22:06.323Z,262140
2017-03-29T08:22:47.208Z,262140
2017-03-29T08:23:28.101Z,262140
2017-03-29T08:24:08.981Z,262140
2017-03-29T08:24:49.860Z,262140
2017-03-29T08:25:30.728Z,262140
2017-03-29T08:26:11.613Z,262140
2017-03-29T08:26:52.500Z,262140
2017-03-29T08:27:33.375Z,262140
2017-03-29T08:28:14.252Z,262140
2017-03-29T08:28:55.139Z,262140
2017-03-29T08:29:36.034Z,262140
2017-03-29T08:30:16.930Z,262140
2017-03-29T08:30:57.813Z,262140
2017-03-29T08:31:38.700Z,262140
2017-03-29T08:32:19.591Z,262140
2017-03-29T08:33:00.464Z,262140
2017-03-29T08:33:41.372Z,262140
2017-03-29T08:34:22.254Z,262140
2017-03-29T08:35:03.133Z,262140
2017-03-29T08:35:44.000Z,262140
2017-03-29T08:36:24.890Z,262140
2017-03-29T08:37:05.798Z,262140
2017-03-29T08:37:46.671Z,262140
2017-03-29T08:38:27.554Z,262140
2017-03-29T08:39:08.439Z,262140
2017-03-29T08:39:49.324Z,262140
2017-03-29T08:40:30.201Z,262140
2017-03-29T08:41:11.089Z,262140
2017-03-29T08:41:51.977Z,262140
2017-03-29T08:42:32.855Z,262140
2017-03-29T08:43:13.736Z,262140
2017-03-29T08:43:54.623Z,262140
2017-03-29T08:44:35.516Z,262140
2017-03-29T08:45:16.394Z,262140
2017-03-29T08:45:57.273Z,262140
2017-03-29T08:46:38.154Z,262140
2017-03-29T08:47:19.035Z,262140
2017-03-29T08:47:59.920Z,262140
2017-03-29T08:48:40.805Z,262140
2017-03-29T08:49:21.689Z,262140
2017-03-29T08:50:02.587Z,262140
2017-03-29T08:50:43.455Z,262140
2017-03-29T08:51:24.334Z,262140
2017-03-29T08:52:05.210Z,262140
2017-03-29T08:52:46.103Z,262140
2017-03-29T08:53:26.989Z,262140
2017-03-29T08:54:07.870Z,262140
2017-03-29T08:54:48.750Z,262140
2017-03-29T08:55:29.635Z,262140
2017-03-29T08:56:10.517Z,262140
2017-03-29T08:56:51.407Z,262140
2017-03-29T08:57:32.304Z,262140
2017-03-29T08:58:13.193Z,262140
2017-03-29T08:58:54.071Z,262140
2017-03-29T08:59:34.957Z,262140
2017-03-29T09:00:15.858Z,262140
2017-03-29T09:00:56.742Z,262140
2017-03-29T09:01:37.640Z,262140
2017-03-29T09:02:18.525Z,262140
2017-03-29T09:02:59.414Z,262140
2017-03-29T09:03:40.291Z,262140
2017-03-29T09:04:21.189Z,262140
2017-03-29T09:05:02.079Z,262140
2017-03-29T09:05:42.963Z,262140
2017-03-29T09:06:23.833Z,262140
2017-03-29T09:07:04.711Z,262140
2017-03-29T09:07:45.592Z,262140
2017-03-29T09:08:26.471Z,262140
2017-03-29T09:09:07.349Z,262140
2017-03-29T09:09:48.226Z,262140
2017-03-29T09:10:29.113Z,262140
2017-03-29T09:11:09.984Z,262140
2017-03-29T09:13:19.987Z,262140
2017-03-29T09:14:00.870Z,262140
2017-03-29T09:14:41.761Z,262140
2017-03-29T09:15:22.635Z,262140
2017-03-29T09:16:03.507Z,262140
2017-03-29T09:16:44.381Z,262140
2017-03-29T09:17:25.253Z,262140
2017-03-29T09:18:06.137Z,262140
2017-03-29T09:18:47.018Z,262140
2017-03-29T09:19:28.089Z,262140
2017-03-29T09:20:08.973Z,262140
2017-03-29T09:20:49.860Z,262140
2017-03-29T09:21:30.750Z,262140
2017-03-29T09:22:11.611Z,262140
2017-03-29T09:22:52.493Z,262140
2017-03-29T09:23:33.393Z,262140
2017-03-29T09:24:14.279Z,262140
2017-03-29T09:24:55.155Z,262140
2017-03-29T09:25:36.034Z,262140
2017-03-29T09:26:16.934Z,262140
2017-03-29T09:26:57.910Z,262140
2017-03-29T09:27:38.779Z,262140
2017-03-29T09:28:19.694Z,262140
2017-03-29T09:29:01.076Z,262140
2017-03-29T09:30:42.310Z,262140
2017-03-29T09:31:25.856Z,262140
2017-03-29T09:32:09.449Z,262140
2017-03-29T09:32:51.111Z,262140
2017-03-29T09:33:31.998Z,262140
2017-03-29T09:34:12.873Z,262140
2017-03-29T09:34:53.764Z,262140
2017-03-29T09:35:34.649Z,262140